createdAt,value
2023-01-07T00:00:50.896Z,-23451.03
2023-01-07T00:02:53.628Z,-23447.88
2023-01-07T00:04:56.556Z,-23447.88
2023-01-07T00:06:59.531Z,-23450.72
2023-01-07T00:09:05.517Z,-23448.34
2023-01-07T00:11:10.099Z,-23449.44
2023-01-07T00:13:12.786Z,-23451.34
2023-01-07T00:15:15.633Z,-23448.50
2023-01-07T00:17:18.323Z,-23445.81
2023-01-07T00:19:22.197Z,-23447.72
2023-01-07T00:21:26.430Z,-23448.50
2023-01-07T00:23:30.561Z,-23448.66
2023-01-07T00:25:34.544Z,-23446.75
2023-01-07T00:27:37.158Z,-23445.00
2023-01-07T00:29:39.803Z,-23446.59
2023-01-07T00:31:42.476Z,-23449.13
2023-01-07T00:33:51.753Z,-23445.81
2023-01-07T00:36:00.412Z,-23443.41
2023-01-07T00:38:03.579Z,-23442.78
2023-01-07T00:40:07.263Z,-23443.25
2023-01-07T00:42:28.961Z,-23441.84
2023-01-07T00:44:31.939Z,-23442.16
2023-01-07T00:46:34.964Z,-23444.38
2023-01-07T00:48:37.665Z,-23440.56
2023-01-07T00:50:40.612Z,-23441.53
2023-01-07T00:52:43.243Z,-23443.75
2023-01-07T00:54:45.879Z,-23443.41
2023-01-07T00:56:48.560Z,-23441.69
2023-01-07T00:58:52.570Z,-23439.78
2023-01-07T01:00:56.556Z,-23441.84
2023-01-07T01:02:59.407Z,-23439.28
2023-01-07T01:05:02.105Z,-23442.78
2023-01-07T01:07:04.800Z,-23443.09
2023-01-07T01:09:07.462Z,-23442.78
2023-01-07T01:11:11.516Z,-23441.84
2023-01-07T01:13:18.513Z,-23442.16
2023-01-07T01:15:22.589Z,-23442.63
2023-01-07T01:17:25.240Z,-23440.88
2023-01-07T01:19:27.888Z,-23440.72
2023-01-07T01:21:31.752Z,-23437.72
2023-01-07T01:23:34.609Z,-23440.56
2023-01-07T01:25:37.235Z,-23439.94
2023-01-07T01:27:40.379Z,-23438.34
2023-01-07T01:29:42.979Z,-23437.72
2023-01-07T01:31:47.014Z,-23438.97
2023-01-07T01:33:49.746Z,-23441.53
2023-01-07T01:35:52.337Z,-23435.97
2023-01-07T01:37:55.024Z,-23437.72
2023-01-07T01:39:57.666Z,-23438.66
2023-01-07T01:42:00.337Z,-23437.88
2023-01-07T01:44:03.451Z,-23437.06
2023-01-07T01:46:13.688Z,-23436.44
2023-01-07T01:48:19.300Z,-23437.41
2023-01-07T01:50:27.351Z,-23437.06
2023-01-07T01:52:34.809Z,-23436.13
2023-01-07T01:54:37.840Z,-23436.59
2023-01-07T01:56:45.589Z,-23438.66
2023-01-07T01:58:54.320Z,-23441.19
2023-01-07T02:00:57.101Z,-23440.41
2023-01-07T02:03:00.783Z,-23436.59
2023-01-07T02:05:06.039Z,-23436.91
2023-01-07T02:07:12.678Z,-23436.75
2023-01-07T02:09:15.372Z,-23437.06
2023-01-07T02:11:29.007Z,-23439.47
2023-01-07T02:13:47.559Z,-23436.13
2023-01-07T02:15:55.157Z,-23437.06
2023-01-07T02:18:10.222Z,-23437.22
2023-01-07T02:20:34.989Z,-23437.06
2023-01-07T02:22:59.645Z,-23435.00
2023-01-07T02:25:24.552Z,-23439.47
2023-01-07T02:28:01.464Z,-23439.94
2023-01-07T02:30:43.187Z,-23445.00
2023-01-07T02:33:04.784Z,-23439.59
2023-01-07T02:35:21.441Z,-23440.56
2023-01-07T02:37:32.744Z,-23440.72
2023-01-07T02:39:47.017Z,-23442.78
2023-01-07T02:41:58.013Z,-23446.28
2023-01-07T02:44:05.714Z,-23445.66
2023-01-07T02:46:17.739Z,-23447.88
2023-01-07T02:48:23.880Z,-23450.41
2023-01-07T02:50:26.891Z,-23449.44
2023-01-07T02:52:33.161Z,-23450.56
2023-01-07T02:54:35.829Z,-23444.06
2023-01-07T02:56:54.080Z,-23443.75
2023-01-07T02:59:12.829Z,-23435.81
2023-01-07T03:01:42.607Z,-23439.47
2023-01-07T03:03:58.831Z,-23442.16
2023-01-07T03:06:13.972Z,-23446.91
2023-01-07T03:08:35.517Z,-23447.22
2023-01-07T03:10:43.398Z,-23450.56
2023-01-07T03:12:48.065Z,-23440.88
2023-01-07T03:14:52.919Z,-23439.28
2023-01-07T03:17:01.664Z,-23438.34
2023-01-07T03:19:10.348Z,-23437.41
2023-01-07T03:21:16.491Z,-23437.53
2023-01-07T03:23:23.509Z,-23438.34
2023-01-07T03:25:29.476Z,-23438.81
2023-01-07T03:27:36.121Z,-23440.72
2023-01-07T03:29:38.875Z,-23438.50
2023-01-07T03:31:48.483Z,-23440.41
2023-01-07T03:33:55.121Z,-23435.81
2023-01-07T03:36:01.317Z,-23437.72
2023-01-07T03:38:05.796Z,-23434.84
2023-01-07T03:40:12.103Z,-23434.69
2023-01-07T03:42:33.994Z,-23437.41
2023-01-07T03:44:36.986Z,-23436.13
2023-01-07T03:46:40.036Z,-23438.50
2023-01-07T03:48:42.852Z,-23440.56
2023-01-07T03:50:45.669Z,-23437.41
2023-01-07T03:52:50.799Z,-23441.84
2023-01-07T03:54:53.628Z,-23442.94
2023-01-07T03:56:56.240Z,-23442.31
2023-01-07T03:58:58.881Z,-23443.09
2023-01-07T04:01:01.605Z,-23435.16
2023-01-07T04:03:04.462Z,-23436.13
2023-01-07T04:05:07.855Z,-23437.72
2023-01-07T04:07:10.808Z,-23434.38
2023-01-07T04:09:18.688Z,-23440.88
2023-01-07T04:11:21.506Z,-23439.78
2023-01-07T04:13:24.586Z,-23433.28
2023-01-07T04:15:27.196Z,-23428.50
2023-01-07T04:17:29.902Z,-23429.78
2023-01-07T04:19:33.266Z,-23429.44
2023-01-07T04:21:35.916Z,-23429.44
2023-01-07T04:23:38.527Z,-23430.09
2023-01-07T04:25:43.050Z,-23433.41
2023-01-07T04:27:45.706Z,-23433.75
2023-01-07T04:29:48.367Z,-23433.28
2023-01-07T04:31:51.287Z,-23435.81
2023-01-07T04:33:53.933Z,-23437.06
2023-01-07T04:35:57.739Z,-23432.16
2023-01-07T04:38:00.522Z,-23439.13
2023-01-07T04:40:03.319Z,-23437.72
2023-01-07T04:42:07.373Z,-23439.28
2023-01-07T04:44:10.311Z,-23436.44
2023-01-07T04:46:13.067Z,-23441.19
2023-01-07T04:48:16.859Z,-23442.16
2023-01-07T04:50:19.546Z,-23439.28
2023-01-07T04:52:22.260Z,-23439.59
2023-01-07T04:54:24.873Z,-23442.31
2023-01-07T04:56:27.648Z,-23445.66
2023-01-07T04:58:31.662Z,-23436.75
2023-01-07T05:00:34.366Z,-23445.00
2023-01-07T05:02:37.133Z,-23437.53
2023-01-07T05:04:39.889Z,-23437.41
2023-01-07T05:06:42.588Z,-23439.28
2023-01-07T05:08:45.208Z,-23436.75
2023-01-07T05:10:49.919Z,-23439.59
2023-01-07T05:12:53.620Z,-23440.25
2023-01-07T05:14:57.558Z,-23436.28
2023-01-07T05:17:00.258Z,-23438.97
2023-01-07T05:19:02.927Z,-23437.72
2023-01-07T05:21:05.945Z,-23434.69
2023-01-07T05:23:08.904Z,-23434.84
2023-01-07T05:25:11.603Z,-23440.41
2023-01-07T05:27:14.375Z,-23439.94
2023-01-07T05:29:16.985Z,-23432.31
2023-01-07T05:31:21.580Z,-23433.91
2023-01-07T05:33:24.246Z,-23430.72
2023-01-07T05:35:26.920Z,-23435.00
2023-01-07T05:37:29.545Z,-23437.41
2023-01-07T05:39:32.308Z,-23432.16
2023-01-07T05:41:34.900Z,-23430.56
2023-01-07T05:43:37.539Z,-23431.19
2023-01-07T05:45:40.151Z,-23436.91
2023-01-07T05:47:45.100Z,-23434.84
2023-01-07T05:49:47.731Z,-23435.97
2023-01-07T05:51:50.380Z,-23434.22
2023-01-07T05:53:53.053Z,-23432.00
2023-01-07T05:55:59.308Z,-23423.25
2023-01-07T05:58:01.920Z,-23422.31
2023-01-07T06:00:05.901Z,-23424.53
2023-01-07T06:02:08.507Z,-23423.72
2023-01-07T06:04:12.563Z,-23421.19
2023-01-07T06:06:15.236Z,-23432.47
2023-01-07T06:08:18.133Z,-23421.81
2023-01-07T06:10:20.947Z,-23418.34
2023-01-07T06:12:23.583Z,-23416.75
2023-01-07T06:14:26.201Z,-23415.47
2023-01-07T06:16:29.372Z,-23419.13
2023-01-07T06:18:32.143Z,-23417.06
2023-01-07T06:20:36.305Z,-23416.75
2023-01-07T06:22:38.915Z,-23422.16
2023-01-07T06:24:41.572Z,-23418.81
2023-01-07T06:26:44.564Z,-23416.59
2023-01-07T06:28:47.202Z,-23418.03
2023-01-07T06:30:49.868Z,-23415.47
2023-01-07T06:32:52.598Z,-23415.63
2023-01-07T06:34:55.231Z,-23417.06
2023-01-07T06:36:59.163Z,-23416.09
2023-01-07T06:39:01.789Z,-23414.84
2023-01-07T06:41:04.665Z,-23416.09
2023-01-07T06:43:07.319Z,-23414.53
2023-01-07T06:45:10.888Z,-23412.13
2023-01-07T06:47:13.611Z,-23413.25
2023-01-07T06:49:16.360Z,-23414.22
2023-01-07T06:51:19.009Z,-23412.78
2023-01-07T06:53:23.106Z,-23412.94
2023-01-07T06:55:25.752Z,-23412.63
2023-01-07T06:57:28.423Z,-23412.31
2023-01-07T06:59:31.074Z,-23410.88
2023-01-07T07:01:33.953Z,-23411.50
2023-01-07T07:03:36.649Z,-23412.63
2023-01-07T07:05:39.474Z,-23409.91
2023-01-07T07:07:42.111Z,-23409.75
2023-01-07T07:09:47.220Z,-23409.13
2023-01-07T07:11:49.803Z,-23413.25
2023-01-07T07:13:52.446Z,-23414.03
2023-01-07T07:15:55.281Z,-23412.94
2023-01-07T07:17:57.942Z,-23412.94
2023-01-07T07:20:00.770Z,-23413.56
2023-01-07T07:22:04.738Z,-23416.28
2023-01-07T07:24:07.820Z,-23413.88
2023-01-07T07:26:11.841Z,-23413.72
2023-01-07T07:28:14.485Z,-23411.97
2023-01-07T07:30:17.462Z,-23413.41
2023-01-07T07:32:20.063Z,-23413.09
2023-01-07T07:34:22.749Z,-23414.53
2023-01-07T07:36:25.362Z,-23413.41
2023-01-07T07:38:28.056Z,-23416.44
2023-01-07T07:40:30.762Z,-23414.38
2023-01-07T07:43:11.715Z,-23413.41
2023-01-07T07:44:57.492Z,-23414.84
2023-01-07T07:47:00.192Z,-23414.53
2023-01-07T07:49:02.907Z,-23414.53
2023-01-07T07:51:06.050Z,-23415.00
2023-01-07T07:53:10.448Z,-23416.91
2023-01-07T07:55:20.373Z,-23415.78
2023-01-07T07:57:28.738Z,-23416.75
2023-01-07T07:59:32.789Z,-23417.06
2023-01-07T08:01:37.355Z,-23415.47
2023-01-07T08:03:40.411Z,-23417.38
2023-01-07T08:05:44.407Z,-23417.38
2023-01-07T08:07:47.067Z,-23418.81
2023-01-07T08:09:49.733Z,-23420.41
2023-01-07T08:11:52.377Z,-23417.06
2023-01-07T08:13:55.106Z,-23422.31
2023-01-07T08:15:59.183Z,-23421.50
2023-01-07T08:18:04.171Z,-23420.25
2023-01-07T08:20:08.702Z,-23421.19
2023-01-07T08:22:11.406Z,-23422.16
2023-01-07T08:24:14.096Z,-23419.75
2023-01-07T08:26:16.716Z,-23425.31
2023-01-07T08:28:19.300Z,-23422.78
2023-01-07T08:30:22.032Z,-23425.16
2023-01-07T08:32:26.124Z,-23431.84
2023-01-07T08:34:29.094Z,-23420.88
2023-01-07T08:36:31.803Z,-23425.47
2023-01-07T08:38:35.018Z,-23422.47
2023-01-07T08:40:38.998Z,-23420.56
2023-01-07T08:42:41.989Z,-23422.31
2023-01-07T08:44:44.682Z,-23423.25
2023-01-07T08:46:47.382Z,-23431.19
2023-01-07T08:48:51.460Z,-23434.22
2023-01-07T08:50:55.406Z,-23428.34
2023-01-07T08:52:58.329Z,-23427.22
2023-01-07T08:55:01.022Z,-23429.28
2023-01-07T08:57:03.755Z,-23424.53
2023-01-07T08:59:06.598Z,-23424.38
2023-01-07T09:01:09.497Z,-23426.59
2023-01-07T09:03:12.172Z,-23436.44
2023-01-07T09:05:16.402Z,-23426.59
2023-01-07T09:07:19.003Z,-23435.81
2023-01-07T09:09:22.535Z,-23428.50
2023-01-07T09:11:25.300Z,-23432.63
2023-01-07T09:13:28.107Z,-23425.78
2023-01-07T09:15:30.824Z,-23434.69
2023-01-07T09:17:33.502Z,-23431.34
2023-01-07T09:19:36.167Z,-23429.13
2023-01-07T09:21:41.341Z,-23430.88
2023-01-07T09:23:44.045Z,-23428.66
2023-01-07T09:25:46.650Z,-23431.69
2023-01-07T09:27:49.475Z,-23433.09
2023-01-07T09:29:52.133Z,-23433.28
2023-01-07T09:31:54.819Z,-23433.09
2023-01-07T09:33:57.560Z,-23433.28
2023-01-07T09:36:00.258Z,-23430.09
2023-01-07T09:38:04.300Z,-23436.44
2023-01-07T09:40:09.423Z,-23440.56
2023-01-07T09:42:22.625Z,-23434.84
2023-01-07T09:44:36.605Z,-23445.97
2023-01-07T09:46:39.521Z,-23449.44
2023-01-07T09:48:46.535Z,-23447.22
2023-01-07T09:50:55.816Z,-23443.09
2023-01-07T09:53:03.881Z,-23449.44
2023-01-07T09:55:17.612Z,-23454.84
2023-01-07T09:57:20.581Z,-23451.03
2023-01-07T09:59:23.257Z,-23445.31
2023-01-07T10:01:35.737Z,-23440.09
2023-01-07T10:03:51.406Z,-23441.84
2023-01-07T10:06:04.181Z,-23437.41
2023-01-07T10:08:29.304Z,-23445.31
2023-01-07T10:10:45.345Z,-23449.13
2023-01-07T10:12:55.953Z,-23454.53
2023-01-07T10:15:20.815Z,-23456.75
2023-01-07T10:17:39.260Z,-23455.47
2023-01-07T10:19:53.065Z,-23448.50
2023-01-07T10:21:58.598Z,-23450.25
2023-01-07T10:24:15.955Z,-23454.53
2023-01-07T10:26:29.773Z,-23454.69
2023-01-07T10:28:37.568Z,-23463.25
2023-01-07T10:30:45.169Z,-23452.31
2023-01-07T10:32:51.065Z,-23468.81
2023-01-07T10:34:57.992Z,-23469.13
2023-01-07T10:37:03.815Z,-23475.16
2023-01-07T10:39:18.318Z,-23484.66
2023-01-07T10:41:28.649Z,-23496.22
2023-01-07T10:43:46.437Z,-23474.50
2023-01-07T10:46:06.214Z,-23464.38
2023-01-07T10:48:37.945Z,-23473.88
2023-01-07T10:50:51.918Z,-23476.41
2023-01-07T10:53:04.341Z,-23471.66
2023-01-07T10:55:32.052Z,-23468.00
2023-01-07T10:57:37.657Z,-23469.75
2023-01-07T10:59:49.835Z,-23461.19
2023-01-07T11:01:55.866Z,-23460.88
2023-01-07T11:04:01.056Z,-23456.59
2023-01-07T11:06:09.891Z,-23475.47
2023-01-07T11:08:17.131Z,-23474.81
2023-01-07T11:10:22.383Z,-23462.47
2023-01-07T11:12:33.746Z,-23461.19
2023-01-07T11:14:41.917Z,-23478.00
2023-01-07T11:16:51.140Z,-23482.44
2023-01-07T11:18:59.922Z,-23476.72
2023-01-07T11:21:02.843Z,-23475.63
2023-01-07T11:23:19.370Z,-23480.06
2023-01-07T11:25:28.634Z,-23488.16
2023-01-07T11:27:35.181Z,-23480.53
2023-01-07T11:29:43.610Z,-23480.22
2023-01-07T11:31:50.388Z,-23486.25
2023-01-07T11:34:02.474Z,-23478.00
2023-01-07T11:36:08.668Z,-23483.22
2023-01-07T11:38:28.354Z,-23490.84
2023-01-07T11:40:33.419Z,-23489.41
2023-01-07T11:42:48.534Z,-23488.31
2023-01-07T11:45:09.316Z,-23485.44
2023-01-07T11:47:16.573Z,-23494.66
2023-01-07T11:49:26.219Z,-23493.38
2023-01-07T11:51:40.497Z,-23488.16
2023-01-07T11:53:47.181Z,-23486.56
2023-01-07T11:55:57.079Z,-23487.50
2023-01-07T11:58:29.602Z,-23491.00
2023-01-07T12:00:24.417Z,-23492.91
2023-01-07T12:02:28.267Z,-23491.47
2023-01-07T12:04:33.198Z,-23491.00
2023-01-07T12:06:40.053Z,-23485.28
2023-01-07T12:08:50.727Z,-23492.59
2023-01-07T12:10:56.433Z,-23494.16
2023-01-07T12:13:01.138Z,-23487.84
2023-01-07T12:15:07.863Z,-23491.31
2023-01-07T12:17:15.350Z,-23491.94
2023-01-07T12:19:31.977Z,-23486.25
2023-01-07T12:21:39.080Z,-23493.06
2023-01-07T12:23:50.516Z,-23497.03
2023-01-07T12:26:03.814Z,-23490.38
2023-01-07T12:28:13.760Z,-23491.31
2023-01-07T12:30:44.020Z,-23490.38
2023-01-07T12:32:53.456Z,-23490.38
2023-01-07T12:35:14.186Z,-23491.16
2023-01-07T12:37:29.642Z,-23499.25
2023-01-07T12:39:36.384Z,-23501.94
2023-01-07T12:41:42.715Z,-23500.50
2023-01-07T12:43:57.789Z,-23493.22
2023-01-07T12:46:02.915Z,-23495.13
2023-01-07T12:48:14.146Z,-23500.34
2023-01-07T12:50:22.498Z,-23500.19
2023-01-07T12:52:36.921Z,-23502.09
2023-01-07T12:54:51.303Z,-23497.97
2023-01-07T12:56:57.712Z,-23498.75
2023-01-07T12:59:06.820Z,-23507.16
2023-01-07T13:01:20.031Z,-23511.28
2023-01-07T13:03:33.766Z,-23517.13
2023-01-07T13:05:40.241Z,-23530.75
2023-01-07T13:07:50.730Z,-23521.56
2023-01-07T13:09:59.730Z,-23518.41
2023-01-07T13:12:40.601Z,-23534.72
2023-01-07T13:14:48.677Z,-23537.41
2023-01-07T13:16:51.355Z,-23543.25
2023-01-07T13:18:55.382Z,-23537.88
2023-01-07T13:21:06.864Z,-23547.38
2023-01-07T13:23:20.648Z,-23516.97
2023-01-07T13:25:37.080Z,-23516.66
2023-01-07T13:28:02.812Z,-23518.25
2023-01-07T13:30:24.226Z,-23522.53
2023-01-07T13:32:46.199Z,-23517.94
2023-01-07T13:35:03.754Z,-23518.56
2023-01-07T13:37:21.404Z,-23525.38
2023-01-07T13:39:39.763Z,-23528.38
2023-01-07T13:41:56.332Z,-23507.63
2023-01-07T13:44:14.045Z,-23515.06
2023-01-07T13:46:21.555Z,-23510.81
2023-01-07T13:48:28.225Z,-23507.16
2023-01-07T13:50:36.512Z,-23512.53
2023-01-07T13:52:43.236Z,-23517.94
2023-01-07T13:55:01.612Z,-23511.13
2023-01-07T13:57:43.666Z,-23502.41
2023-01-07T13:59:49.756Z,-23508.59
2023-01-07T14:02:26.115Z,-23506.06
2023-01-07T14:04:36.735Z,-23511.59
2023-01-07T14:06:43.027Z,-23516.19
2023-01-07T14:08:46.435Z,-23506.69
2023-01-07T14:10:54.350Z,-23508.09
2023-01-07T14:13:25.336Z,-23507.16
2023-01-07T14:16:03.089Z,-23508.09
2023-01-07T14:18:27.539Z,-23506.53
2023-01-07T14:20:33.613Z,-23500.19
2023-01-07T14:22:48.571Z,-23502.41
2023-01-07T14:25:14.197Z,-23505.56
2023-01-07T14:27:45.993Z,-23498.59
2023-01-07T14:29:50.346Z,-23500.19
2023-01-07T14:32:12.637Z,-23502.72
2023-01-07T14:34:21.591Z,-23503.84
2023-01-07T14:36:24.259Z,-23504.31
2023-01-07T14:39:06.677Z,-23501.13
2023-01-07T14:41:13.179Z,-23495.75
2023-01-07T14:43:47.943Z,-23494.81
2023-01-07T14:45:55.403Z,-23494.31
2023-01-07T14:47:58.067Z,-23494.50
2023-01-07T14:50:20.766Z,-23491.78
2023-01-07T14:52:58.702Z,-23487.84
2023-01-07T14:55:55.415Z,-23484.66
2023-01-07T14:58:17.861Z,-23484.03
2023-01-07T15:00:53.871Z,-23488.31
2023-01-07T15:03:22.967Z,-23480.84
2023-01-07T15:05:58.293Z,-23476.88
2023-01-07T15:08:19.260Z,-23476.41
2023-01-07T15:10:42.487Z,-23477.38
2023-01-07T15:13:07.639Z,-23477.03
2023-01-07T15:15:36.108Z,-23475.16
2023-01-07T15:17:40.460Z,-23476.56
2023-01-07T15:19:44.215Z,-23474.34
2023-01-07T15:22:01.143Z,-23472.75
2023-01-07T15:24:13.828Z,-23472.44
2023-01-07T15:26:22.909Z,-23467.84
2023-01-07T15:28:38.071Z,-23467.84
2023-01-07T15:30:51.400Z,-23463.72
2023-01-07T15:33:00.116Z,-23462.31
2023-01-07T15:35:10.366Z,-23461.19
2023-01-07T15:37:15.190Z,-23460.25
2023-01-07T15:39:23.279Z,-23458.03
2023-01-07T15:41:32.746Z,-23460.09
2023-01-07T15:43:35.795Z,-23459.28
2023-01-07T15:45:39.000Z,-23457.06
2023-01-07T15:47:43.501Z,-23456.13
2023-01-07T15:49:46.137Z,-23456.44
2023-01-07T15:51:50.438Z,-23454.22
2023-01-07T15:53:56.057Z,-23453.25
2023-01-07T15:56:00.891Z,-23452.00
2023-01-07T15:58:06.394Z,-23443.41
2023-01-07T16:00:10.196Z,-23444.69
2023-01-07T16:02:22.134Z,-23442.63
2023-01-07T16:04:30.563Z,-23443.59
2023-01-07T16:06:39.270Z,-23441.84
2023-01-07T16:08:45.279Z,-23441.69
2023-01-07T16:11:02.096Z,-23438.34
2023-01-07T16:13:06.316Z,-23435.81
2023-01-07T16:15:26.220Z,-23434.69
2023-01-07T16:17:28.916Z,-23432.31
2023-01-07T16:19:32.860Z,-23434.69
2023-01-07T16:21:39.219Z,-23434.53
2023-01-07T16:23:42.109Z,-23433.91
2023-01-07T16:25:47.915Z,-23434.69
2023-01-07T16:27:51.774Z,-23434.06
2023-01-07T16:29:59.429Z,-23431.19
2023-01-07T16:32:03.235Z,-23431.03
2023-01-07T16:34:45.417Z,-23429.94
2023-01-07T16:36:50.315Z,-23428.34
2023-01-07T16:38:57.975Z,-23424.69
2023-01-07T16:41:00.931Z,-23421.81
2023-01-07T16:43:03.799Z,-23422.47
2023-01-07T16:45:21.401Z,-23421.19
2023-01-07T16:47:25.785Z,-23419.44
2023-01-07T16:49:29.902Z,-23419.28
2023-01-07T16:51:38.553Z,-23418.34
2023-01-07T16:53:42.642Z,-23418.34
2023-01-07T16:55:51.044Z,-23416.75
2023-01-07T16:57:54.781Z,-23418.03
2023-01-07T16:59:59.392Z,-23415.47
2023-01-07T17:02:12.199Z,-23416.09
2023-01-07T17:04:18.364Z,-23415.78
2023-01-07T17:06:25.473Z,-23414.69
2023-01-07T17:08:28.645Z,-23415.00
2023-01-07T17:10:34.432Z,-23413.88
2023-01-07T17:12:40.128Z,-23411.03
2023-01-07T17:14:48.216Z,-23411.03
2023-01-07T17:17:00.455Z,-23410.56
2023-01-07T17:19:26.340Z,-23409.75
2023-01-07T17:21:41.226Z,-23408.16
2023-01-07T17:23:45.644Z,-23405.00
2023-01-07T17:25:51.261Z,-23406.75
2023-01-07T17:27:57.862Z,-23405.78
2023-01-07T17:30:03.901Z,-23403.88
2023-01-07T17:32:07.591Z,-23405.00
2023-01-07T17:34:12.506Z,-23405.00
2023-01-07T17:36:17.670Z,-23402.44
2023-01-07T17:38:20.348Z,-23399.91
2023-01-07T17:40:23.127Z,-23398.00
2023-01-07T17:42:51.317Z,-23399.59
2023-01-07T17:44:53.993Z,-23397.69
2023-01-07T17:46:56.660Z,-23396.25
2023-01-07T17:48:59.674Z,-23395.31
2023-01-07T17:51:04.539Z,-23395.47
2023-01-07T17:53:07.334Z,-23393.72
2023-01-07T17:55:14.713Z,-23392.28
2023-01-07T17:57:17.358Z,-23390.69
2023-01-07T17:59:23.478Z,-23392.91
2023-01-07T18:01:27.176Z,-23388.63
2023-01-07T18:03:30.025Z,-23387.53
2023-01-07T18:05:33.147Z,-23386.72
2023-01-07T18:07:35.801Z,-23386.09
2023-01-07T18:09:38.795Z,-23384.81
2023-01-07T18:12:03.077Z,-23383.38
2023-01-07T18:14:06.380Z,-23383.06
2023-01-07T18:16:13.020Z,-23381.78
2023-01-07T18:18:15.808Z,-23380.84
2023-01-07T18:20:20.144Z,-23377.97
2023-01-07T18:22:23.747Z,-23375.13
2023-01-07T18:24:26.496Z,-23376.22
2023-01-07T18:26:29.103Z,-23378.31
2023-01-07T18:28:31.901Z,-23377.66
2023-01-07T18:30:36.505Z,-23378.31
2023-01-07T18:32:40.492Z,-23377.19
2023-01-07T18:34:43.112Z,-23377.50
2023-01-07T18:36:45.824Z,-23379.56
2023-01-07T18:38:49.613Z,-23378.63
2023-01-07T18:40:52.391Z,-23378.63
2023-01-07T18:42:55.295Z,-23379.88
2023-01-07T18:44:58.045Z,-23381.97
2023-01-07T18:47:00.779Z,-23384.97
2023-01-07T18:49:04.892Z,-23384.97
2023-01-07T18:51:10.903Z,-23387.84
2023-01-07T18:53:14.157Z,-23384.03
2023-01-07T18:55:17.917Z,-23382.91
2023-01-07T18:57:20.632Z,-23381.16
2023-01-07T18:59:23.331Z,-23378.63
2023-01-07T19:01:26.452Z,-23373.53
2023-01-07T19:03:29.188Z,-23373.53
2023-01-07T19:05:33.312Z,-23371.63
2023-01-07T19:07:36.123Z,-23373.53
2023-01-07T19:09:38.804Z,-23372.72
2023-01-07T19:11:41.878Z,-23373.06
2023-01-07T19:13:44.677Z,-23373.38
2023-01-07T19:15:47.353Z,-23374.97
2023-01-07T19:17:49.962Z,-23378.31
2023-01-07T19:19:52.640Z,-23379.25
2023-01-07T19:21:56.696Z,-23376.22
2023-01-07T19:24:03.546Z,-23375.13
2023-01-07T19:26:07.566Z,-23377.34
2023-01-07T19:28:10.228Z,-23378.13
2023-01-07T19:30:13.762Z,-23376.72
2023-01-07T19:32:16.552Z,-23376.56
2023-01-07T19:34:31.191Z,-23374.31
2023-01-07T19:36:34.173Z,-23376.06
2023-01-07T19:38:40.921Z,-23377.66
2023-01-07T19:40:43.806Z,-23378.63
2023-01-07T19:42:47.783Z,-23375.13
2023-01-07T19:44:50.487Z,-23375.91
2023-01-07T19:46:53.586Z,-23377.66
2023-01-07T19:48:56.335Z,-23377.50
2023-01-07T19:51:00.912Z,-23376.06
2023-01-07T19:53:03.515Z,-23378.47
2023-01-07T19:55:08.869Z,-23374.63
2023-01-07T19:57:11.830Z,-23372.41
2023-01-07T19:59:14.567Z,-23373.22
2023-01-07T20:01:19.202Z,-23372.09
2023-01-07T20:03:21.961Z,-23371.31
2023-01-07T20:05:25.938Z,-23367.81
2023-01-07T20:07:33.935Z,-23367.50
2023-01-07T20:09:36.640Z,-23365.56
2023-01-07T20:11:42.438Z,-23366.22
2023-01-07T20:13:46.225Z,-23364.94
2023-01-07T20:15:48.913Z,-23364.63
2023-01-07T20:17:51.530Z,-23365.25
2023-01-07T20:19:54.215Z,-23365.56
2023-01-07T20:21:56.851Z,-23368.28
2023-01-07T20:23:59.857Z,-23366.69
2023-01-07T20:26:04.571Z,-23365.25
2023-01-07T20:28:08.675Z,-23367.50
2023-01-07T20:30:12.543Z,-23366.22
2023-01-07T20:32:15.216Z,-23367.81
2023-01-07T20:34:18.001Z,-23365.75
2023-01-07T20:36:23.754Z,-23367.66
2023-01-07T20:38:26.417Z,-23368.75
2023-01-07T20:40:29.110Z,-23370.66
2023-01-07T20:42:32.770Z,-23373.38
2023-01-07T20:44:36.933Z,-23373.22
2023-01-07T20:46:40.629Z,-23372.72
2023-01-07T20:48:43.355Z,-23371.31
2023-01-07T20:50:46.035Z,-23371.31
2023-01-07T20:52:48.820Z,-23373.38
2023-01-07T20:54:51.509Z,-23369.72
2023-01-07T20:56:54.115Z,-23365.91
2023-01-07T20:58:57.359Z,-23364.16
2023-01-07T21:01:04.860Z,-23363.84
2023-01-07T21:03:08.046Z,-23360.50
2023-01-07T21:05:11.415Z,-23363.19
2023-01-07T21:07:14.083Z,-23360.50
2023-01-07T21:09:17.968Z,-23357.78
2023-01-07T21:11:22.888Z,-23357.00
2023-01-07T21:13:26.005Z,-23358.75
2023-01-07T21:15:28.687Z,-23358.91
2023-01-07T21:17:32.761Z,-23358.59
2023-01-07T21:19:35.422Z,-23359.06
2023-01-07T21:21:38.116Z,-23360.81
2023-01-07T21:23:41.524Z,-23360.50
2023-01-07T21:25:47.946Z,-23358.09
2023-01-07T21:27:50.537Z,-23355.88
2023-01-07T21:29:53.230Z,-23355.41
2023-01-07T21:31:57.391Z,-23354.94
2023-01-07T21:34:01.475Z,-23353.34
2023-01-07T21:36:07.885Z,-23353.50
2023-01-07T21:38:10.568Z,-23350.16
2023-01-07T21:40:13.535Z,-23350.47
2023-01-07T21:42:16.158Z,-23348.41
2023-01-07T21:44:19.457Z,-23349.03
2023-01-07T21:46:22.857Z,-23349.19
2023-01-07T21:48:25.493Z,-23350.00
2023-01-07T21:50:29.541Z,-23350.78
2023-01-07T21:52:32.342Z,-23348.41
2023-01-07T21:54:35.257Z,-23347.13
2023-01-07T21:56:37.870Z,-23346.97
2023-01-07T21:58:41.061Z,-23346.81
2023-01-07T22:00:43.659Z,-23345.06
2023-01-07T22:02:46.361Z,-23343.31
2023-01-07T22:04:49.231Z,-23343.00
2023-01-07T22:06:53.421Z,-23340.75
2023-01-07T22:08:57.767Z,-23339.81
2023-01-07T22:11:00.537Z,-23338.69
2023-01-07T22:13:03.099Z,-23337.25
2023-01-07T22:15:06.743Z,-23335.66
2023-01-07T22:17:11.271Z,-23335.34
2023-01-07T22:19:14.083Z,-23333.75
2023-01-07T22:21:17.544Z,-23334.25
2023-01-07T22:23:21.596Z,-23334.72
2023-01-07T22:25:24.261Z,-23333.13
2023-01-07T22:27:26.931Z,-23330.88
2023-01-07T22:29:31.585Z,-23330.25
2023-01-07T22:31:37.024Z,-23332.81
2023-01-07T22:33:39.723Z,-23331.22
2023-01-07T22:35:42.672Z,-23331.22
2023-01-07T22:37:45.460Z,-23329.78
2023-01-07T22:39:53.669Z,-23329.94
2023-01-07T22:42:00.362Z,-23328.97
2023-01-07T22:44:10.298Z,-23327.38
2023-01-07T22:46:20.710Z,-23326.44
2023-01-07T22:48:27.233Z,-23326.13
2023-01-07T22:50:30.024Z,-23326.13
2023-01-07T22:52:33.173Z,-23322.63
2023-01-07T22:54:36.520Z,-23322.63
2023-01-07T22:56:41.597Z,-23324.53
2023-01-07T22:58:44.254Z,-23325.16
2023-01-07T23:01:07.017Z,-23324.84
2023-01-07T23:03:09.790Z,-23328.34
2023-01-07T23:05:12.458Z,-23328.97
2023-01-07T23:07:15.141Z,-23327.88
2023-01-07T23:09:17.777Z,-23328.03
2023-01-07T23:11:34.352Z,-23330.88
2023-01-07T23:13:38.599Z,-23328.66
2023-01-07T23:15:41.674Z,-23327.38
2023-01-07T23:17:44.334Z,-23325.31
2023-01-07T23:19:47.011Z,-23320.72
2023-01-07T23:21:51.782Z,-23317.19
2023-01-07T23:23:54.652Z,-23316.88
2023-01-07T23:25:57.392Z,-23316.88
2023-01-07T23:28:00.030Z,-23323.72
2023-01-07T23:30:04.209Z,-23324.53
2023-01-07T23:32:10.394Z,-23327.72
2023-01-07T23:34:14.076Z,-23332.16
2023-01-07T23:36:16.927Z,-23331.84
2023-01-07T23:38:19.607Z,-23334.56
2023-01-07T23:40:22.283Z,-23335.03
2023-01-07T23:42:24.887Z,-23333.75
2023-01-07T23:44:27.598Z,-23333.75
2023-01-07T23:46:32.610Z,-23334.25
2023-01-07T23:48:37.274Z,-23337.91
2023-01-07T23:50:39.932Z,-23334.41
2023-01-07T23:52:42.663Z,-23334.25
2023-01-07T23:54:45.436Z,-23335.66
2023-01-07T23:56:48.680Z,-23334.56
2023-01-07T23:58:51.682Z,-23335.50
